Rp Zug — HE7351 — position and weather

sailwx.info

Track history (hours):
 
Tides and Currents Weather Stations Pressure Air Temp Water Temp Dewpoint Dewpoint Depression Visibility Wind Speed Wind Dir Waves Ship Positions

Rp Zug

Last reported at 2014-Sep-23 13:34 UTC. Time now 2014-Sep-23 14:22 UTC.
Position N 51°54' E 005°36'.

Type: Tanker. MMSI: 269057351.

Date/timePositionNaut miles runAvg speedWind from/ knotsBaromVisibWave heightAir tempDewpointWater temp
2014-Sep-23 13:34N 51°54' E 005°36'0 0.0
2014-Sep-23 12:33N 51°54' E 005°36'0 0.0
2014-Sep-23 11:34N 51°54' E 005°36'0 0.0
2014-Sep-23 10:34N 51°54' E 005°36'0 0.0
2014-Sep-23 09:34N 51°54' E 005°36'0 0.0
2014-Sep-23 08:33N 51°54' E 005°36'0 0.0
2014-Sep-23 07:34N 51°54' E 005°36'0 0.0
2014-Sep-23 06:34N 51°54' E 005°36'0 0.0
2014-Sep-23 05:34N 51°54' E 005°36'0 0.0
2014-Sep-23 04:34N 51°54' E 005°36'0 0.0
2014-Sep-23 03:33N 51°54' E 005°36'0 0.0
2014-Sep-23 02:34N 51°54' E 005°36'0 0.0
2014-Sep-23 01:34N 51°54' E 005°36'0 0.0
2014-Sep-23 00:33N 51°54' E 005°36'0 0.0
2014-Sep-22 23:33N 51°54' E 005°36'0 0.0
2014-Sep-22 22:34N 51°54' E 005°36'0 0.0
2014-Sep-22 21:33N 51°54' E 005°36'0 0.0
2014-Sep-22 20:34N 51°54' E 005°36'0 0.0
2014-Sep-22 19:33N 51°54' E 005°36'0 0.0
2014-Sep-22 18:34N 51°54' E 005°36'0 0.0
2014-Sep-22 17:34N 51°54' E 005°36'0 0.0
2014-Sep-22 16:33N 51°54' E 005°36'0 0.0
2014-Sep-22 15:34N 51°54' E 005°36'0 0.0
2014-Sep-22 14:33N 51°54' E 005°36'0 0.0
2014-Sep-22 13:34N 51°54' E 005°36'0 0.0
2014-Sep-22 12:33N 51°54' E 005°36'0 0.0
2014-Sep-22 11:34N 51°54' E 005°36'0 0.0
2014-Sep-22 10:33N 51°54' E 005°36'0 0.0
2014-Sep-22 09:33N 51°54' E 005°36'0 0.0
2014-Sep-22 08:33N 51°54' E 005°36'0 0.0
2014-Sep-22 07:33N 51°54' E 005°36'0 0.0
2014-Sep-22 06:33N 51°54' E 005°36'0 0.1
2014-Sep-22 05:33N 51°54' E 005°36'0 0.0
2014-Sep-22 04:33N 51°54' E 005°36'0 0.0
2014-Sep-22 03:33N 51°54' E 005°36'0 0.0
2014-Sep-22 02:33N 51°54' E 005°36'0 0.0
2014-Sep-22 01:33N 51°54' E 005°36'0 0.0
2014-Sep-22 00:33N 51°54' E 005°36'0 0.0
2014-Sep-21 23:33N 51°54' E 005°36'0 0.0
2014-Sep-21 22:33N 51°54' E 005°36'0 0.0
2014-Sep-21 21:33N 51°54' E 005°36'0 0.0
2014-Sep-21 20:33N 51°54' E 005°36'0 0.0
2014-Sep-21 19:33N 51°54' E 005°36'0 0.0
2014-Sep-21 18:33N 51°54' E 005°36'0 0.0
2014-Sep-21 17:33N 51°54' E 005°36'0 0.0
2014-Sep-21 16:33N 51°54' E 005°36'0 0.0
2014-Sep-21 15:33N 51°54' E 005°36'0 0.0
2014-Sep-21 14:33N 51°54' E 005°36'0 0.0
2014-Sep-21 13:33N 51°54' E 005°36'0 0.0
2014-Sep-21 12:33N 51°54' E 005°36'0 0.0
2014-Sep-21 11:33N 51°54' E 005°36'0 0.1
2014-Sep-21 10:33N 51°54' E 005°36'0 0.0
2014-Sep-21 09:33N 51°54' E 005°36'0 0.1
2014-Sep-21 08:33N 51°54' E 005°36'0 0.0
2014-Sep-21 07:33N 51°54' E 005°36'0 0.0
2014-Sep-21 06:33N 51°54' E 005°36'0 0.0
2014-Sep-21 05:33N 51°54' E 005°36'0 0.0
2014-Sep-21 04:33N 51°54' E 005°36'0 0.0
2014-Sep-21 03:33N 51°54' E 005°36'0 0.0
2014-Sep-21 02:33N 51°54' E 005°36'0 0.0
2014-Sep-21 01:33N 51°54' E 005°36'0 0.0
2014-Sep-21 00:33N 51°54' E 005°36'0 0.0
2014-Sep-20 23:33N 51°54' E 005°36'0 0.0
2014-Sep-20 22:33N 51°54' E 005°36'0 0.0
2014-Sep-20 21:33N 51°54' E 005°36'0 0.0
2014-Sep-20 20:33N 51°54' E 005°36'0 0.0
2014-Sep-20 19:33N 51°54' E 005°36'0 0.0
2014-Sep-20 18:33N 51°54' E 005°36'0 0.0
2014-Sep-20 17:33N 51°54' E 005°36'0 0.0
2014-Sep-20 16:33N 51°54' E 005°36'0 0.0
2014-Sep-20 15:33N 51°54' E 005°36'0 0.0
2014-Sep-20 14:33N 51°54' E 005°36'4 3.7
2014-Sep-20 13:33N 51°53' E 005°30'7 7.3
2014-Sep-20 12:33N 51°48' E 005°22'7 7.3
2014-Sep-20 11:33N 51°49' E 005°10'8 8.4
2014-Sep-20 10:33N 51°50' E 004°56'9 8.7
2014-Sep-20 09:33N 51°45' E 004°44'6 3.0
2014-Sep-20 07:30N 51°42' E 004°36'0 0.0
2014-Sep-20 06:33N 51°42' E 004°36'1 1.5
2014-Sep-20 05:33N 51°43' E 004°38'0 0.1
2014-Sep-20 04:33N 51°43' E 004°38'0 0.1
2014-Sep-20 03:34N 51°43' E 004°38'0 0.0
2014-Sep-20 02:33N 51°43' E 004°38'0 0.0
2014-Sep-20 01:33N 51°43' E 004°38'0 0.0
2014-Sep-20 00:33N 51°43' E 004°38'0 0.0
2014-Sep-19 23:33N 51°43' E 004°38'0 0.0
2014-Sep-19 22:33N 51°43' E 004°38'0 0.0
2014-Sep-19 21:33N 51°43' E 004°38'0 0.0
2014-Sep-19 20:33N 51°43' E 004°38'0 0.0
2014-Sep-19 19:33N 51°43' E 004°38'0 0.0
2014-Sep-19 18:33N 51°43' E 004°38'0 0.0
2014-Sep-19 17:33N 51°43' E 004°38'0 0.0
2014-Sep-19 16:33N 51°43' E 004°38'0 0.0
2014-Sep-19 15:33N 51°43' E 004°38'0 0.1
2014-Sep-19 14:32N 51°43' E 004°38'0 0.0
2014-Sep-19 13:33N 51°43' E 004°38'0 0.0
2014-Sep-19 12:33N 51°43' E 004°38'0 0.0
2014-Sep-19 11:33N 51°43' E 004°38'0 0.0
2014-Sep-19 10:31N 51°43' E 004°38'0 0.1
2014-Sep-19 09:33N 51°43' E 004°38'0 0.0
2014-Sep-19 08:33N 51°43' E 004°38'1 0.6
2014-Sep-19 06:26N 51°42' E 004°36'0 0.0
2014-Sep-19 05:31N 51°42' E 004°36'0 0.0
2014-Sep-19 04:33N 51°42' E 004°36'0 0.4
2014-Sep-19 03:33N 51°42' E 004°36'9 9.2
2014-Sep-19 02:33N 51°48' E 004°48'1010.1
2014-Sep-19 01:33N 51°49' E 005°04'1110.6
2014-Sep-19 00:33N 51°48' E 005°21'1110.7
2014-Sep-18 23:33N 51°54' E 005°35'1510.1
2014-Sep-18 22:03N 51°53' E 005°60'811.5
2014-Sep-18 21:21N 51°50' E 006°12'6 0.2
2014-Sep-17 20:13N 51°46' E 006°20'4 6.1
2014-Sep-17 19:32N 51°49' E 006°16'7 5.9
2014-Sep-17 18:24N 51°51' E 006°05'9 5.0
2014-Sep-17 16:32N 51°52' E 005°50'6 6.3
2014-Sep-17 15:33N 51°54' E 005°40'6 6.0
2014-Sep-17 14:34N 51°53' E 005°31'6 5.8
2014-Sep-17 13:34N 51°50' E 005°23'5 5.0
2014-Sep-17 12:34N 51°49' E 005°15'7 6.5
2014-Sep-17 11:34N 51°50' E 005°05'8 7.7
2014-Sep-17 10:33N 51°49' E 004°52'8 8.2
2014-Sep-17 09:34N 51°51' E 004°40'8 8.3
2014-Sep-17 08:33N 51°54' E 004°27'4 3.6
2014-Sep-17 07:34N 51°53' E 004°21'0 0.0
2014-Sep-17 06:33N 51°53' E 004°21'0 0.0
2014-Sep-17 05:33N 51°53' E 004°21'0 0.0
2014-Sep-17 04:34N 51°53' E 004°21'0 0.0
2014-Sep-17 03:33N 51°53' E 004°21'0 0.0
2014-Sep-17 02:33N 51°53' E 004°21'0 0.0
2014-Sep-17 01:34N 51°53' E 004°21'0 0.0
2014-Sep-17 00:33N 51°53' E 004°21'0 0.0
2014-Sep-16 23:32N 51°53' E 004°21'0 0.0
2014-Sep-16 22:33N 51°53' E 004°21'0 0.0
2014-Sep-16 21:33N 51°53' E 004°21'1 0.6
2014-Sep-16 20:33N 51°54' E 004°22'0 0.0
2014-Sep-16 19:33N 51°54' E 004°22'4 3.8
2014-Sep-16 18:33N 51°50' E 004°25'9 9.0
2014-Sep-16 17:34N 51°49' E 004°40'1010.3
2014-Sep-16 16:33N 51°50' E 004°56'8 8.0
2014-Sep-16 15:33N 51°49' E 005°09'10 9.8
2014-Sep-16 14:33N 51°51' E 005°25'1110.8
2014-Sep-16 13:33N 51°54' E 005°42'22 9.7
2014-Sep-16 11:19N 51°49' E 006°16'36 5.4
2014-Sep-16 04:33N 51°17' E 006°42'  
2014-Sep-13 14:10N 51°09' E 006°49'3 4.7
2014-Sep-13 13:34N 51°11' E 006°47'  
Track history (hours):
 
Tides and Currents Weather Stations Pressure Air Temp Water Temp Dewpoint Dewpoint Depression Visibility Wind Speed Wind Dir Waves Ship Positions

Rp Zug

Last reported at 2014-Sep-23 13:34 UTC. Time now 2014-Sep-23 14:22 UTC.
Position N 51°54' E 005°36'.

Type: Tanker. MMSI: 269057351.

Date/timePositionNaut miles runAvg speedWind from/ knotsBaromVisibWave heightAir tempDewpointWater temp
2014-Sep-23 13:34N 51°54' E 005°36'0 0.0
2014-Sep-23 12:33N 51°54' E 005°36'0 0.0
2014-Sep-23 11:34N 51°54' E 005°36'0 0.0
2014-Sep-23 10:34N 51°54' E 005°36'0 0.0
2014-Sep-23 09:34N 51°54' E 005°36'0 0.0
2014-Sep-23 08:33N 51°54' E 005°36'0 0.0
2014-Sep-23 07:34N 51°54' E 005°36'0 0.0
2014-Sep-23 06:34N 51°54' E 005°36'0 0.0
2014-Sep-23 05:34N 51°54' E 005°36'0 0.0
2014-Sep-23 04:34N 51°54' E 005°36'0 0.0
2014-Sep-23 03:33N 51°54' E 005°36'0 0.0
2014-Sep-23 02:34N 51°54' E 005°36'0 0.0
2014-Sep-23 01:34N 51°54' E 005°36'0 0.0
2014-Sep-23 00:33N 51°54' E 005°36'0 0.0
2014-Sep-22 23:33N 51°54' E 005°36'0 0.0
2014-Sep-22 22:34N 51°54' E 005°36'0 0.0
2014-Sep-22 21:33N 51°54' E 005°36'0 0.0
2014-Sep-22 20:34N 51°54' E 005°36'0 0.0
2014-Sep-22 19:33N 51°54' E 005°36'0 0.0
2014-Sep-22 18:34N 51°54' E 005°36'0 0.0
2014-Sep-22 17:34N 51°54' E 005°36'0 0.0
2014-Sep-22 16:33N 51°54' E 005°36'0 0.0
2014-Sep-22 15:34N 51°54' E 005°36'0 0.0
2014-Sep-22 14:33N 51°54' E 005°36'0 0.0
2014-Sep-22 13:34N 51°54' E 005°36'0 0.0
2014-Sep-22 12:33N 51°54' E 005°36'0 0.0
2014-Sep-22 11:34N 51°54' E 005°36'0 0.0
2014-Sep-22 10:33N 51°54' E 005°36'0 0.0
2014-Sep-22 09:33N 51°54' E 005°36'0 0.0
2014-Sep-22 08:33N 51°54' E 005°36'0 0.0
2014-Sep-22 07:33N 51°54' E 005°36'0 0.0
2014-Sep-22 06:33N 51°54' E 005°36'0 0.1
2014-Sep-22 05:33N 51°54' E 005°36'0 0.0
2014-Sep-22 04:33N 51°54' E 005°36'0 0.0
2014-Sep-22 03:33N 51°54' E 005°36'0 0.0
2014-Sep-22 02:33N 51°54' E 005°36'0 0.0
2014-Sep-22 01:33N 51°54' E 005°36'0 0.0
2014-Sep-22 00:33N 51°54' E 005°36'0 0.0
2014-Sep-21 23:33N 51°54' E 005°36'0 0.0
2014-Sep-21 22:33N 51°54' E 005°36'0 0.0
2014-Sep-21 21:33N 51°54' E 005°36'0 0.0
2014-Sep-21 20:33N 51°54' E 005°36'0 0.0
2014-Sep-21 19:33N 51°54' E 005°36'0 0.0
2014-Sep-21 18:33N 51°54' E 005°36'0 0.0
2014-Sep-21 17:33N 51°54' E 005°36'0 0.0
2014-Sep-21 16:33N 51°54' E 005°36'0 0.0
2014-Sep-21 15:33N 51°54' E 005°36'0 0.0
2014-Sep-21 14:33N 51°54' E 005°36'0 0.0
2014-Sep-21 13:33N 51°54' E 005°36'0 0.0
2014-Sep-21 12:33N 51°54' E 005°36'0 0.0
2014-Sep-21 11:33N 51°54' E 005°36'0 0.1
2014-Sep-21 10:33N 51°54' E 005°36'0 0.0
2014-Sep-21 09:33N 51°54' E 005°36'0 0.1
2014-Sep-21 08:33N 51°54' E 005°36'0 0.0
2014-Sep-21 07:33N 51°54' E 005°36'0 0.0
2014-Sep-21 06:33N 51°54' E 005°36'0 0.0
2014-Sep-21 05:33N 51°54' E 005°36'0 0.0
2014-Sep-21 04:33N 51°54' E 005°36'0 0.0
2014-Sep-21 03:33N 51°54' E 005°36'0 0.0
2014-Sep-21 02:33N 51°54' E 005°36'0 0.0
2014-Sep-21 01:33N 51°54' E 005°36'0 0.0
2014-Sep-21 00:33N 51°54' E 005°36'0 0.0
2014-Sep-20 23:33N 51°54' E 005°36'0 0.0
2014-Sep-20 22:33N 51°54' E 005°36'0 0.0
2014-Sep-20 21:33N 51°54' E 005°36'0 0.0
2014-Sep-20 20:33N 51°54' E 005°36'0 0.0
2014-Sep-20 19:33N 51°54' E 005°36'0 0.0
2014-Sep-20 18:33N 51°54' E 005°36'0 0.0
2014-Sep-20 17:33N 51°54' E 005°36'0 0.0
2014-Sep-20 16:33N 51°54' E 005°36'0 0.0
2014-Sep-20 15:33N 51°54' E 005°36'0 0.0
2014-Sep-20 14:33N 51°54' E 005°36'4 3.7
2014-Sep-20 13:33N 51°53' E 005°30'7 7.3
2014-Sep-20 12:33N 51°48' E 005°22'7 7.3
2014-Sep-20 11:33N 51°49' E 005°10'8 8.4
2014-Sep-20 10:33N 51°50' E 004°56'9 8.7
2014-Sep-20 09:33N 51°45' E 004°44'6 3.0
2014-Sep-20 07:30N 51°42' E 004°36'0 0.0
2014-Sep-20 06:33N 51°42' E 004°36'1 1.5
2014-Sep-20 05:33N 51°43' E 004°38'0 0.1
2014-Sep-20 04:33N 51°43' E 004°38'0 0.1
2014-Sep-20 03:34N 51°43' E 004°38'0 0.0
2014-Sep-20 02:33N 51°43' E 004°38'0 0.0
2014-Sep-20 01:33N 51°43' E 004°38'0 0.0
2014-Sep-20 00:33N 51°43' E 004°38'0 0.0
2014-Sep-19 23:33N 51°43' E 004°38'0 0.0
2014-Sep-19 22:33N 51°43' E 004°38'0 0.0
2014-Sep-19 21:33N 51°43' E 004°38'0 0.0
2014-Sep-19 20:33N 51°43' E 004°38'0 0.0
2014-Sep-19 19:33N 51°43' E 004°38'0 0.0
2014-Sep-19 18:33N 51°43' E 004°38'0 0.0
2014-Sep-19 17:33N 51°43' E 004°38'0 0.0
2014-Sep-19 16:33N 51°43' E 004°38'0 0.0
2014-Sep-19 15:33N 51°43' E 004°38'0 0.1
2014-Sep-19 14:32N 51°43' E 004°38'0 0.0
2014-Sep-19 13:33N 51°43' E 004°38'0 0.0
2014-Sep-19 12:33N 51°43' E 004°38'0 0.0
2014-Sep-19 11:33N 51°43' E 004°38'0 0.0
2014-Sep-19 10:31N 51°43' E 004°38'0 0.1
2014-Sep-19 09:33N 51°43' E 004°38'0 0.0
2014-Sep-19 08:33N 51°43' E 004°38'1 0.6
2014-Sep-19 06:26N 51°42' E 004°36'0 0.0
2014-Sep-19 05:31N 51°42' E 004°36'0 0.0
2014-Sep-19 04:33N 51°42' E 004°36'0 0.4
2014-Sep-19 03:33N 51°42' E 004°36'9 9.2
2014-Sep-19 02:33N 51°48' E 004°48'1010.1
2014-Sep-19 01:33N 51°49' E 005°04'1110.6
2014-Sep-19 00:33N 51°48' E 005°21'1110.7
2014-Sep-18 23:33N 51°54' E 005°35'1510.1
2014-Sep-18 22:03N 51°53' E 005°60'811.5
2014-Sep-18 21:21N 51°50' E 006°12'6 0.2
2014-Sep-17 20:13N 51°46' E 006°20'4 6.1
2014-Sep-17 19:32N 51°49' E 006°16'7 5.9
2014-Sep-17 18:24N 51°51' E 006°05'9 5.0
2014-Sep-17 16:32N 51°52' E 005°50'6 6.3
2014-Sep-17 15:33N 51°54' E 005°40'6 6.0
2014-Sep-17 14:34N 51°53' E 005°31'6 5.8
2014-Sep-17 13:34N 51°50' E 005°23'5 5.0
2014-Sep-17 12:34N 51°49' E 005°15'7 6.5
2014-Sep-17 11:34N 51°50' E 005°05'8 7.7
2014-Sep-17 10:33N 51°49' E 004°52'8 8.2
2014-Sep-17 09:34N 51°51' E 004°40'8 8.3
2014-Sep-17 08:33N 51°54' E 004°27'4 3.6
2014-Sep-17 07:34N 51°53' E 004°21'0 0.0
2014-Sep-17 06:33N 51°53' E 004°21'0 0.0
2014-Sep-17 05:33N 51°53' E 004°21'0 0.0
2014-Sep-17 04:34N 51°53' E 004°21'0 0.0
2014-Sep-17 03:33N 51°53' E 004°21'0 0.0
2014-Sep-17 02:33N 51°53' E 004°21'0 0.0
2014-Sep-17 01:34N 51°53' E 004°21'0 0.0
2014-Sep-17 00:33N 51°53' E 004°21'0 0.0
2014-Sep-16 23:32N 51°53' E 004°21'0 0.0
2014-Sep-16 22:33N 51°53' E 004°21'0 0.0
2014-Sep-16 21:33N 51°53' E 004°21'1 0.6
2014-Sep-16 20:33N 51°54' E 004°22'0 0.0
2014-Sep-16 19:33N 51°54' E 004°22'4 3.8
2014-Sep-16 18:33N 51°50' E 004°25'9 9.0
2014-Sep-16 17:34N 51°49' E 004°40'1010.3
2014-Sep-16 16:33N 51°50' E 004°56'8 8.0
2014-Sep-16 15:33N 51°49' E 005°09'10 9.8
2014-Sep-16 14:33N 51°51' E 005°25'1110.8
2014-Sep-16 13:33N 51°54' E 005°42'22 9.7
2014-Sep-16 11:19N 51°49' E 006°16'36 5.4
2014-Sep-16 04:33N 51°17' E 006°42'  
2014-Sep-13 14:10N 51°09' E 006°49'3 4.7
2014-Sep-13 13:34N 51°11' E 006°47'  

Dump ship's entire track history